Weather at Las Brujas Airport

Public forecast

Using degrees Celsius for public forecast. Weather courtesy of forecast.io.

Current aviation weather report (METAR) for Las Brujas Airport

Report is more than 6 hours old.

Retrieved 2021/07/15 12:00 UTC (2 months ago):

SKCZ 151200Z VRB01KT 5000 BR BKN003 25/24 Q1010 RMK A2984

Closest aviation forecast (TAF) to Las Brujas Airport

Closest forecast is Rafael Nuñez International Airport, 68.0 nm (125.9 km) NNW. Retrieved 2021/09/25 06:00 UTC (45 minutes ago):

TAF SKCG 250430Z 2506/2606 VRB02KT 9999 FEW017 TEMPO 2510/2513 5000 RADZ SCT013CB BECMG 2518/2520 33008KT PROB40 TEMPO 2518/2521 TS SCT015CB BECMG 2601/2603 VRB02KT TX32/2518Z TN24/2510Z